CYHM

Hamilton/John C. Munro Hamilton International Airport

Airport
ICAO code
CYHM
IATA Code
YHM
Summary
ICAO Region
NAM
ICAO Territory
Location

Hamilton, Ontario,

Serving
Hamilton
Elevation
780 ft
Coordinates
43° 10' 23" N , 79° 56' 6" W
KCC
Metar
Observation
CYHM 301000Z 02005KT 15SM FEW250 05/04 A3038 RMK CI1 SLP293
Station
Hamilton Airport
Date/Time
2022-09-30 10:00:00
Wind direction
20°
Wind speed
05 kts
Lowest cloud amount
few clouds
Temperature
5°C
Dew point
4°C
Humidity
93%
Weather condition
n/a

Description

John C. Munro Hamilton International Airport or Hamilton International, is an international airport in Hamilton, Ontario, Canada.

Climatology

Humid continental climate (Köppen climate classification Dfa) - characterized by four seasons: cold, windy, snowy winters, mild springs, hot, humid summers, and crisp and relatively short autumns. Precipitation reaches its lowest in January and February and peaks in summer and latter half of spring.

Runways

Designator Length Width Surface Rops
6/24 1829 46 ASP Yes/Yes
12/30 3048 61 ASP Yes/Yes

SKYbrary Partners:

Safety knowledge contributed by: